Time;durP1;ratioP1;P1;durP2;ratioP2;P2;SDS_P1;SDS_P2;PMS_P1;PMS_P2;Temp;Humidity;BMP_temperature;BMP_pressure;BME280_temperature;BME280_humidity;BME280_pressure;Samples;Min_cycle;Max_cycle;Signal;HPM_P1;HPM_P2
2023/07/29 00:00:15;;;;;;;4.55;1.58;;;;;;;;;;4959430;28;20222;-69
2023/07/29 00:02:41;;;;;;;4.60;1.70;;;;;;;;;;4959466;28;20346;-68
2023/07/29 00:05:06;;;;;;;5.97;2.15;;;;;;;;;;4970250;28;20183;-67
2023/07/29 00:07:31;;;;;;;2.67;1.83;;;;;;;;;;4972637;28;20858;-68
2023/07/29 00:12:32;;;;;;;2.95;1.95;;;;;;;;;;4983693;28;20301;-70
2023/07/29 00:14:57;;;;;;;2.42;1.70;;;;;;;;;;4983729;28;20206;-70
2023/07/29 00:17:22;;;;;;;6.03;1.60;;;;;;;;;;4987608;28;20179;-70
2023/07/29 00:19:47;;;;;;;3.42;2.15;;;;;;;;;;4987594;28;20262;-70
2023/07/29 00:22:13;;;;;;;5.65;1.70;;;;;;;;;;4977815;28;20211;-70
2023/07/29 00:24:39;;;;;;;3.75;1.60;;;;;;;;;;4975405;28;20194;-70
2023/07/29 00:27:04;;;;;;;2.70;1.73;;;;;;;;;;4975224;28;20200;-70
2023/07/29 00:29:29;;;;;;;3.85;2.13;;;;;;;;;;4977855;28;20198;-70
2023/07/29 00:31:55;;;;;;;6.63;2.50;;;;;;;;;;4976568;28;20693;-70
2023/07/29 00:34:20;;;;;;;4.97;2.38;;;;;;;;;;4977012;28;20298;-70
2023/07/29 00:36:45;;;;;;;3.67;2.25;;;;;;;;;;4973948;28;20180;-70
2023/07/29 00:39:11;;;;;;;5.45;2.50;;;;;;;;;;4976819;28;20896;-70
2023/07/29 00:41:36;;;;;;;5.15;2.17;;;;;;;;;;4972519;28;20234;-70
2023/07/29 00:44:02;;;;;;;3.75;2.40;;;;;;;;;;4977965;28;20191;-70
2023/07/29 00:46:28;;;;;;;6.10;3.17;;;;;;;;;;4960076;28;20672;-70
2023/07/29 00:48:53;;;;;;;3.35;2.78;;;;;;;;;;4960833;28;20466;-71
2023/07/29 00:51:18;;;;;;;3.40;2.80;;;;;;;;;;4952038;28;20208;-70
2023/07/29 00:53:43;;;;;;;4.55;2.58;;;;;;;;;;4975353;28;20198;-70
2023/07/29 00:56:08;;;;;;;3.78;2.97;;;;;;;;;;4973163;28;20220;-71
2023/07/29 00:58:34;;;;;;;6.82;3.38;;;;;;;;;;4957445;28;20187;-70
2023/07/29 01:00:59;;;;;;;4.97;2.75;;;;;;;;;;4974584;28;20253;-71
2023/07/29 01:03:25;;;;;;;5.05;3.05;;;;;;;;;;4970508;28;20256;-71
2023/07/29 01:05:56;;;;;;;5.05;3.05;;;;;;;;;;4972940;28;20218;-71
2023/07/29 01:08:27;;;;;;;6.85;4.05;;;;;;;;;;4971480;28;20254;-71
2023/07/29 01:10:58;;;;;;;8.07;4.10;;;;;;;;;;4975699;28;20277;-71
2023/07/29 01:13:37;;;;;;;6.55;3.75;;;;;;;;;;4974334;28;20192;-70
2023/07/29 01:16:08;;;;;;;5.57;3.60;;;;;;;;;;4977848;28;20219;-71
2023/07/29 01:18:36;;;;;;;7.63;4.32;;;;;;;;;;4957360;28;20579;-71
2023/07/29 01:21:06;;;;;;;9.27;4.28;;;;;;;;;;4977811;28;20218;-71
2023/07/29 01:23:32;;;;;;;8.98;4.15;;;;;;;;;;4976239;28;20968;-71
2023/07/29 01:25:57;;;;;;;8.00;4.10;;;;;;;;;;4959399;28;21119;-71
2023/07/29 01:28:23;;;;;;;9.77;4.00;;;;;;;;;;4980352;28;20191;-71
2023/07/29 01:30:50;;;;;;;7.15;3.72;;;;;;;;;;4976727;28;20210;-71
2023/07/29 01:33:42;;;;;;;8.43;3.47;;;;;;;;;;4979290;28;20195;-71
2023/07/29 01:36:11;;;;;;;9.73;4.97;;;;;;;;;;4977281;28;20708;-71
2023/07/29 01:38:38;;;;;;;9.63;4.18;;;;;;;;;;4979042;28;20574;-71
2023/07/29 01:41:04;;;;;;;6.78;4.78;;;;;;;;;;4980342;28;20204;-71
2023/07/29 01:43:29;;;;;;;7.78;4.18;;;;;;;;;;4974652;28;20334;-71
2023/07/29 01:45:55;;;;;;;12.13;4.47;;;;;;;;;;4977429;28;20184;-71
2023/07/29 01:48:20;;;;;;;8.73;4.35;;;;;;;;;;4979598;28;20572;-71
2023/07/29 01:50:45;;;;;;;7.95;3.60;;;;;;;;;;4960482;28;20207;-70
2023/07/29 01:53:11;;;;;;;6.75;4.30;;;;;;;;;;4979030;28;20187;-69
2023/07/29 01:55:36;;;;;;;6.88;4.18;;;;;;;;;;4978010;28;20705;-70
2023/07/29 01:58:01;;;;;;;4.72;3.85;;;;;;;;;;4978414;28;20275;-70
2023/07/29 02:00:26;;;;;;;7.10;4.05;;;;;;;;;;4977692;28;20223;-70
2023/07/29 02:02:52;;;;;;;5.78;3.72;;;;;;;;;;4974033;28;20705;-70
2023/07/29 02:05:17;;;;;;;7.20;4.20;;;;;;;;;;4977681;28;20592;-70
2023/07/29 02:07:42;;;;;;;6.30;3.60;;;;;;;;;;4980257;28;20184;-70
2023/07/29 02:10:08;;;;;;;6.75;3.42;;;;;;;;;;4960920;28;20192;-70
2023/07/29 02:12:33;;;;;;;6.05;3.50;;;;;;;;;;4961356;28;20194;-70
2023/07/29 02:14:58;;;;;;;5.88;2.90;;;;;;;;;;4977988;28;20237;-70
2023/07/29 02:17:24;;;;;;;6.28;3.15;;;;;;;;;;4960446;28;20195;-70
2023/07/29 02:19:49;;;;;;;7.07;3.05;;;;;;;;;;4978355;28;20189;-70
2023/07/29 02:22:16;;;;;;;5.93;3.67;;;;;;;;;;4981158;28;20311;-70
2023/07/29 02:24:42;;;;;;;5.18;2.75;;;;;;;;;;4977797;28;20183;-70
2023/07/29 02:27:07;;;;;;;6.25;2.47;;;;;;;;;;4975239;28;20268;-70
2023/07/29 02:29:32;;;;;;;5.78;2.65;;;;;;;;;;4977090;28;20650;-70
2023/07/29 02:31:58;;;;;;;5.70;2.22;;;;;;;;;;4976480;28;20223;-70
2023/07/29 02:34:23;;;;;;;4.15;2.85;;;;;;;;;;4977840;28;20191;-70
2023/07/29 02:36:48;;;;;;;4.80;2.50;;;;;;;;;;4979660;28;20183;-70
2023/07/29 02:39:14;;;;;;;5.82;2.13;;;;;;;;;;4978669;28;20208;-70
2023/07/29 02:41:39;;;;;;;5.57;2.30;;;;;;;;;;4978715;28;20203;-70
2023/07/29 02:44:04;;;;;;;4.28;2.10;;;;;;;;;;4975332;28;20262;-70
2023/07/29 02:46:30;;;;;;;5.95;2.30;;;;;;;;;;4979507;28;20331;-70
2023/07/29 02:48:55;;;;;;;3.90;2.40;;;;;;;;;;4979015;28;20274;-71
2023/07/29 02:51:20;;;;;;;5.07;2.03;;;;;;;;;;4979130;28;20207;-70
2023/07/29 02:53:45;;;;;;;4.20;2.50;;;;;;;;;;4981017;28;20213;-70
2023/07/29 02:56:11;;;;;;;4.43;3.20;;;;;;;;;;4961129;28;20448;-70
2023/07/29 02:58:37;;;;;;;3.53;2.33;;;;;;;;;;4974225;28;20188;-70
2023/07/29 03:01:03;;;;;;;4.32;2.55;;;;;;;;;;4978142;28;20247;-70
2023/07/29 03:03:28;;;;;;;6.40;2.50;;;;;;;;;;4978094;28;20192;-70
2023/07/29 03:05:57;;;;;;;3.88;2.40;;;;;;;;;;4976221;28;20195;-70
2023/07/29 03:08:22;;;;;;;9.23;3.30;;;;;;;;;;4979714;28;20282;-70
2023/07/29 03:10:47;;;;;;;2.17;1.55;;;;;;;;;;4953386;28;20756;-71
2023/07/29 03:13:13;;;;;;;3.80;2.40;;;;;;;;;;4963399;28;20179;-70
2023/07/29 03:15:38;;;;;;;3.22;2.33;;;;;;;;;;4977105;28;20689;-70
2023/07/29 03:18:03;;;;;;;8.13;2.30;;;;;;;;;;4978911;28;20803;-70
2023/07/29 03:20:29;;;;;;;4.80;2.42;;;;;;;;;;4980589;28;20208;-70
2023/07/29 03:22:54;;;;;;;4.55;2.65;;;;;;;;;;4978195;28;20234;-70
2023/07/29 03:25:19;;;;;;;3.10;2.17;;;;;;;;;;4977354;28;21427;-70
2023/07/29 03:27:44;;;;;;;4.85;2.50;;;;;;;;;;4978081;28;20183;-70
2023/07/29 03:30:10;;;;;;;5.22;2.53;;;;;;;;;;4978641;28;20973;-70
2023/07/29 03:32:35;;;;;;;3.95;1.98;;;;;;;;;;4978925;28;20188;-70
2023/07/29 03:35:00;;;;;;;5.07;2.00;;;;;;;;;;4960523;28;20298;-70
2023/07/29 03:37:25;;;;;;;3.58;2.60;;;;;;;;;;4976551;28;20549;-70
2023/07/29 03:39:52;;;;;;;4.25;2.72;;;;;;;;;;4978091;28;20213;-70
2023/07/29 03:42:17;;;;;;;3.42;2.35;;;;;;;;;;4978058;28;20211;-70
2023/07/29 03:44:42;;;;;;;3.40;2.30;;;;;;;;;;4974033;28;20187;-70
2023/07/29 03:47:07;;;;;;;6.55;2.75;;;;;;;;;;4977127;28;20377;-70
2023/07/29 03:49:33;;;;;;;4.63;2.30;;;;;;;;;;4978443;28;20764;-70
2023/07/29 03:51:58;;;;;;;4.38;2.53;;;;;;;;;;4978923;28;20258;-71
2023/07/29 03:54:23;;;;;;;2.75;1.80;;;;;;;;;;4976871;28;20192;-70
2023/07/29 03:56:48;;;;;;;2.60;2.20;;;;;;;;;;4975579;28;20666;-70
2023/07/29 03:59:14;;;;;;;5.25;2.63;;;;;;;;;;4978734;28;20809;-70
2023/07/29 04:01:39;;;;;;;3.10;2.30;;;;;;;;;;4978116;28;20280;-70
2023/07/29 04:04:04;;;;;;;3.90;1.75;;;;;;;;;;4961277;28;20226;-70
2023/07/29 04:06:29;;;;;;;3.92;2.17;;;;;;;;;;4977218;28;20196;-70
2023/07/29 04:08:55;;;;;;;3.28;2.35;;;;;;;;;;4979050;28;20219;-70
2023/07/29 04:11:20;;;;;;;3.20;2.20;;;;;;;;;;4979670;28;20231;-70
2023/07/29 04:13:45;;;;;;;3.22;1.75;;;;;;;;;;4980325;28;20215;-70
2023/07/29 04:16:11;;;;;;;3.58;2.03;;;;;;;;;;4976281;28;20223;-70
2023/07/29 04:18:36;;;;;;;3.35;2.20;;;;;;;;;;4978999;28;20265;-70
2023/07/29 04:21:01;;;;;;;2.67;1.90;;;;;;;;;;4973892;28;20253;-70
2023/07/29 04:23:27;;;;;;;3.47;2.08;;;;;;;;;;4976578;28;20304;-70
2023/07/29 04:25:52;;;;;;;5.55;2.15;;;;;;;;;;4975158;28;20191;-70
2023/07/29 04:28:17;;;;;;;2.42;2.13;;;;;;;;;;4975246;28;20303;-70
2023/07/29 04:30:42;;;;;;;3.10;1.77;;;;;;;;;;4976810;28;20207;-70
2023/07/29 04:33:08;;;;;;;3.35;1.58;;;;;;;;;;4977420;28;20192;-70
2023/07/29 04:35:33;;;;;;;4.00;2.22;;;;;;;;;;4975386;28;20302;-70
2023/07/29 04:37:58;;;;;;;5.10;3.00;;;;;;;;;;4974872;28;20192;-70
2023/07/29 04:40:23;;;;;;;2.85;2.08;;;;;;;;;;4975343;28;20209;-70
2023/07/29 04:42:49;;;;;;;2.67;1.73;;;;;;;;;;4974110;28;20562;-70
2023/07/29 04:45:14;;;;;;;3.90;2.22;;;;;;;;;;4971860;28;20690;-70
2023/07/29 04:47:39;;;;;;;4.72;2.45;;;;;;;;;;4976286;28;20245;-70
2023/07/29 04:50:06;;;;;;;2.65;2.00;;;;;;;;;;4958486;28;20211;-70
2023/07/29 04:52:31;;;;;;;5.50;3.25;;;;;;;;;;4977104;28;20274;-70
2023/07/29 04:54:56;;;;;;;4.20;2.38;;;;;;;;;;4974756;28;20216;-70
2023/07/29 04:57:21;;;;;;;4.38;2.40;;;;;;;;;;4960922;28;20273;-70
2023/07/29 04:59:47;;;;;;;8.65;2.63;;;;;;;;;;4974759;28;20325;-69
2023/07/29 05:02:12;;;;;;;4.72;2.60;;;;;;;;;;4976053;28;20701;-70
2023/07/29 05:04:37;;;;;;;6.97;2.90;;;;;;;;;;4961390;28;21045;-70
2023/07/29 05:07:02;;;;;;;4.07;2.67;;;;;;;;;;4981998;28;20218;-70
2023/07/29 05:09:28;;;;;;;3.90;2.50;;;;;;;;;;4961908;28;20635;-70
2023/07/29 05:11:53;;;;;;;5.60;2.83;;;;;;;;;;4981454;28;20242;-70
2023/07/29 05:14:18;;;;;;;5.85;3.03;;;;;;;;;;4976108;28;20956;-70
2023/07/29 05:16:43;;;;;;;4.82;2.78;;;;;;;;;;4955911;28;20191;-69
2023/07/29 05:19:09;;;;;;;5.43;2.78;;;;;;;;;;4979112;28;20920;-70
2023/07/29 05:21:34;;;;;;;5.43;2.92;;;;;;;;;;4979498;28;20265;-70
2023/07/29 05:24:00;;;;;;;5.13;3.38;;;;;;;;;;4976946;28;20324;-70
2023/07/29 05:26:25;;;;;;;5.05;3.13;;;;;;;;;;4971830;28;20187;-71
2023/07/29 05:28:50;;;;;;;4.38;3.33;;;;;;;;;;4971771;28;20657;-71
2023/07/29 05:31:15;;;;;;;8.77;3.60;;;;;;;;;;4976827;28;20561;-70
2023/07/29 05:33:41;;;;;;;8.00;3.40;;;;;;;;;;4979985;28;20188;-70
2023/07/29 05:36:06;;;;;;;5.38;3.50;;;;;;;;;;4978641;28;20215;-70
2023/07/29 05:38:31;;;;;;;8.90;3.55;;;;;;;;;;4978551;28;20184;-70
2023/07/29 05:40:56;;;;;;;5.65;3.00;;;;;;;;;;4960126;28;20207;-70
2023/07/29 05:43:23;;;;;;;4.43;3.35;;;;;;;;;;4980160;28;20870;-70
2023/07/29 05:45:48;;;;;;;4.38;3.22;;;;;;;;;;4979681;28;20218;-71
2023/07/29 05:48:14;;;;;;;5.45;2.65;;;;;;;;;;4974998;28;20184;-70
2023/07/29 05:50:39;;;;;;;6.93;3.85;;;;;;;;;;4978049;28;20215;-70
2023/07/29 05:53:04;;;;;;;6.93;3.13;;;;;;;;;;4979774;28;20192;-70
2023/07/29 05:55:29;;;;;;;6.50;3.40;;;;;;;;;;4977463;28;20218;-70
2023/07/29 05:57:54;;;;;;;10.07;3.97;;;;;;;;;;4962694;28;20223;-70
2023/07/29 06:00:20;;;;;;;4.60;3.13;;;;;;;;;;4972331;28;20246;-70
2023/07/29 06:02:45;;;;;;;6.25;3.05;;;;;;;;;;4962224;28;20658;-70
2023/07/29 06:05:10;;;;;;;7.55;3.45;;;;;;;;;;4979380;28;20191;-70
2023/07/29 06:07:35;;;;;;;7.28;3.50;;;;;;;;;;4957016;28;20188;-69
2023/07/29 06:10:01;;;;;;;6.00;3.50;;;;;;;;;;4977684;28;20188;-69
2023/07/29 06:12:26;;;;;;;6.78;3.70;;;;;;;;;;4980911;28;20669;-69
2023/07/29 06:14:52;;;;;;;6.43;3.72;;;;;;;;;;4976519;28;20231;-69
2023/07/29 06:17:17;;;;;;;4.63;3.20;;;;;;;;;;4972019;28;20666;-69
2023/07/29 06:19:42;;;;;;;5.95;3.05;;;;;;;;;;4975585;28;20180;-70
2023/07/29 06:22:07;;;;;;;5.80;3.65;;;;;;;;;;4979869;28;20214;-69
2023/07/29 06:24:33;;;;;;;10.27;3.47;;;;;;;;;;4977902;28;21434;-70
2023/07/29 06:26:58;;;;;;;4.55;3.25;;;;;;;;;;4959114;28;20195;-71
2023/07/29 06:29:23;;;;;;;7.10;3.65;;;;;;;;;;4979709;28;20210;-70
2023/07/29 06:31:49;;;;;;;6.10;4.07;;;;;;;;;;4962932;28;20294;-71
2023/07/29 06:34:14;;;;;;;5.00;3.17;;;;;;;;;;4975760;28;20234;-70
2023/07/29 06:36:39;;;;;;;5.70;2.92;;;;;;;;;;4975774;28;20228;-70
2023/07/29 06:39:05;;;;;;;3.17;2.80;;;;;;;;;;4977820;28;20207;-70
2023/07/29 06:41:30;;;;;;;3.78;3.22;;;;;;;;;;4978834;28;20204;-70
2023/07/29 06:43:55;;;;;;;5.47;2.83;;;;;;;;;;4978983;28;20183;-71
2023/07/29 06:46:21;;;;;;;9.30;3.17;;;;;;;;;;4977450;28;20219;-71
2023/07/29 06:48:46;;;;;;;3.72;3.20;;;;;;;;;;4980578;28;20191;-71
2023/07/29 06:51:12;;;;;;;7.10;3.67;;;;;;;;;;4978110;28;20300;-70
2023/07/29 06:53:37;;;;;;;5.43;3.22;;;;;;;;;;4979613;28;20223;-70
2023/07/29 06:56:02;;;;;;;5.88;3.55;;;;;;;;;;4977175;28;20302;-70
2023/07/29 06:58:27;;;;;;;3.88;2.40;;;;;;;;;;4979126;28;20183;-71
2023/07/29 07:00:53;;;;;;;5.28;3.17;;;;;;;;;;4969199;28;20206;-70
2023/07/29 07:03:18;;;;;;;5.88;3.30;;;;;;;;;;4971203;28;20275;-70
2023/07/29 07:05:43;;;;;;;6.20;3.38;;;;;;;;;;4980252;28;20271;-71
2023/07/29 07:08:08;;;;;;;4.80;2.90;;;;;;;;;;4961397;28;20520;-70
2023/07/29 07:10:34;;;;;;;3.75;2.53;;;;;;;;;;4976315;28;20219;-71
2023/07/29 07:12:59;;;;;;;8.05;3.35;;;;;;;;;;4978513;28;20192;-71
2023/07/29 07:15:24;;;;;;;5.80;3.03;;;;;;;;;;4977550;28;20211;-70
2023/07/29 07:17:50;;;;;;;5.50;3.55;;;;;;;;;;4978869;28;20672;-70
2023/07/29 07:20:16;;;;;;;5.97;3.47;;;;;;;;;;4975730;28;20241;-71
2023/07/29 07:22:41;;;;;;;4.30;2.63;;;;;;;;;;4978365;28;20196;-71
2023/07/29 07:25:07;;;;;;;3.70;2.65;;;;;;;;;;4977467;28;20191;-71
2023/07/29 07:27:32;;;;;;;4.28;2.85;;;;;;;;;;4975795;28;20340;-71
2023/07/29 07:29:57;;;;;;;5.30;2.75;;;;;;;;;;4977717;28;20720;-71
2023/07/29 07:32:22;;;;;;;5.60;2.92;;;;;;;;;;4977377;28;20223;-71
2023/07/29 07:34:47;;;;;;;5.72;3.42;;;;;;;;;;4977664;28;20246;-70
2023/07/29 07:37:13;;;;;;;3.40;3.10;;;;;;;;;;4970817;28;20196;-70
2023/07/29 07:39:38;;;;;;;4.68;2.95;;;;;;;;;;4975895;28;20263;-71
2023/07/29 07:42:03;;;;;;;2.80;2.38;;;;;;;;;;4976673;28;20208;-70
2023/07/29 07:44:28;;;;;;;4.40;2.38;;;;;;;;;;4976885;28;20180;-70
2023/07/29 07:46:54;;;;;;;2.83;2.50;;;;;;;;;;4978581;28;20554;-71
2023/07/29 07:49:19;;;;;;;2.75;2.40;;;;;;;;;;4977328;28;20661;-71
2023/07/29 07:51:44;;;;;;;4.30;2.58;;;;;;;;;;4959463;28;20405;-71
2023/07/29 07:54:09;;;;;;;5.25;2.33;;;;;;;;;;4973824;28;20191;-70
2023/07/29 07:56:35;;;;;;;7.78;2.47;;;;;;;;;;4973043;28;20223;-70
2023/07/29 07:59:00;;;;;;;6.32;2.20;;;;;;;;;;4974440;28;20191;-71
2023/07/29 08:01:25;;;;;;;2.03;1.80;;;;;;;;;;4959409;28;20211;-70
2023/07/29 08:03:50;;;;;;;3.75;2.50;;;;;;;;;;4973341;28;20231;-71
2023/07/29 08:06:16;;;;;;;4.35;2.60;;;;;;;;;;4975315;28;20195;-71
2023/07/29 08:08:41;;;;;;;5.35;2.92;;;;;;;;;;4970644;28;20183;-70
2023/07/29 08:11:06;;;;;;;4.50;2.67;;;;;;;;;;4977111;28;20743;-70
2023/07/29 08:13:31;;;;;;;3.45;2.70;;;;;;;;;;4958671;28;20283;-70
2023/07/29 08:15:57;;;;;;;3.75;2.40;;;;;;;;;;4975624;28;20338;-71
2023/07/29 08:18:22;;;;;;;4.88;2.30;;;;;;;;;;4977085;28;20322;-70
2023/07/29 08:20:54;;;;;;;4.45;2.78;;;;;;;;;;4958629;28;20200;-70
2023/07/29 08:23:19;;;;;;;5.28;2.70;;;;;;;;;;4952280;28;20180;-71
2023/07/29 08:25:44;;;;;;;4.90;2.88;;;;;;;;;;4969991;28;20235;-70
2023/07/29 08:28:11;;;;;;;3.90;3.55;;;;;;;;;;4977460;28;20206;-70
2023/07/29 08:30:36;;;;;;;9.75;3.78;;;;;;;;;;4975924;28;21006;-71
2023/07/29 08:33:01;;;;;;;4.20;3.80;;;;;;;;;;4971415;28;20199;-70
2023/07/29 08:35:26;;;;;;;3.80;3.45;;;;;;;;;;4974474;28;20207;-70
2023/07/29 08:37:52;;;;;;;6.47;3.47;;;;;;;;;;4976445;28;20190;-69
2023/07/29 08:40:17;;;;;;;5.18;2.83;;;;;;;;;;4975852;28;20327;-70
2023/07/29 08:42:44;;;;;;;4.72;3.08;;;;;;;;;;4976185;28;20184;-71
2023/07/29 08:45:11;;;;;;;3.92;2.53;;;;;;;;;;4974662;28;20192;-70
2023/07/29 08:47:36;;;;;;;3.53;2.33;;;;;;;;;;4976373;28;20246;-70
2023/07/29 08:50:02;;;;;;;3.70;2.67;;;;;;;;;;4958492;28;20187;-70
2023/07/29 08:52:28;;;;;;;3.88;2.55;;;;;;;;;;4971811;28;20615;-71
2023/07/29 08:54:54;;;;;;;4.07;2.72;;;;;;;;;;4973880;28;20203;-70
2023/07/29 08:57:20;;;;;;;4.55;2.60;;;;;;;;;;4975669;28;20262;-70
2023/07/29 08:59:45;;;;;;;4.40;3.55;;;;;;;;;;4958535;28;20633;-70
2023/07/29 09:02:11;;;;;;;3.00;2.17;;;;;;;;;;4972926;28;21050;-71
2023/07/29 09:04:36;;;;;;;2.85;2.47;;;;;;;;;;4959408;28;21008;-71
2023/07/29 09:07:01;;;;;;;3.35;3.05;;;;;;;;;;4977272;28;20188;-70
2023/07/29 09:09:27;;;;;;;3.30;3.00;;;;;;;;;;4977851;28;20180;-70
2023/07/29 09:11:52;;;;;;;3.28;2.95;;;;;;;;;;4978117;28;20216;-71
2023/07/29 09:14:17;;;;;;;3.45;2.35;;;;;;;;;;4972583;28;20195;-70
2023/07/29 09:16:43;;;;;;;3.28;2.70;;;;;;;;;;4977387;28;20211;-69
2023/07/29 09:19:08;;;;;;;3.78;2.40;;;;;;;;;;4979223;28;20180;-70
2023/07/29 09:21:34;;;;;;;3.17;2.40;;;;;;;;;;4978046;28;20210;-71
2023/07/29 09:24:02;;;;;;;3.08;2.30;;;;;;;;;;4961519;28;20649;-70
2023/07/29 09:26:28;;;;;;;5.90;3.10;;;;;;;;;;4960475;28;20314;-70
2023/07/29 09:28:54;;;;;;;6.20;2.88;;;;;;;;;;4978761;28;20200;-69
2023/07/29 09:31:20;;;;;;;5.45;2.50;;;;;;;;;;4978451;28;20712;-69
2023/07/29 09:33:45;;;;;;;3.08;2.60;;;;;;;;;;4979209;28;20196;-69
2023/07/29 09:36:11;;;;;;;2.83;2.42;;;;;;;;;;4973201;28;20208;-70
2023/07/29 09:38:36;;;;;;;3.70;2.33;;;;;;;;;;4976243;28;20195;-69
2023/07/29 09:41:02;;;;;;;2.42;2.20;;;;;;;;;;4977983;28;20210;-69
2023/07/29 09:43:31;;;;;;;2.97;1.92;;;;;;;;;;4978813;28;20180;-70
2023/07/29 09:46:01;;;;;;;3.30;2.13;;;;;;;;;;4960650;28;20184;-71
2023/07/29 09:48:26;;;;;;;2.83;2.08;;;;;;;;;;4981379;28;20796;-70
2023/07/29 09:50:51;;;;;;;1.90;1.60;;;;;;;;;;4982038;28;20285;-70
2023/07/29 09:53:17;;;;;;;2.00;1.83;;;;;;;;;;4981745;28;20187;-69
2023/07/29 09:55:46;;;;;;;6.03;2.22;;;;;;;;;;4976197;28;20278;-70
2023/07/29 09:58:11;;;;;;;3.83;1.95;;;;;;;;;;4962544;28;20180;-70
2023/07/29 10:00:38;;;;;;;1.60;1.50;;;;;;;;;;4980916;28;20713;-70
2023/07/29 10:03:04;;;;;;;3.05;2.30;;;;;;;;;;4963334;28;20226;-70
2023/07/29 10:05:29;;;;;;;2.78;1.83;;;;;;;;;;4963530;28;20184;-70
2023/07/29 10:07:55;;;;;;;2.40;1.65;;;;;;;;;;4981856;28;20213;-71
2023/07/29 10:10:21;;;;;;;2.17;1.90;;;;;;;;;;4981068;28;21049;-69
2023/07/29 10:12:46;;;;;;;2.22;1.55;;;;;;;;;;4981350;28;20194;-71
2023/07/29 10:15:12;;;;;;;3.85;1.58;;;;;;;;;;4978071;28;20211;-71
2023/07/29 10:17:37;;;;;;;1.80;1.42;;;;;;;;;;4980795;28;20187;-71
2023/07/29 10:20:03;;;;;;;1.50;1.20;;;;;;;;;;4982137;28;20183;-70
2023/07/29 10:22:32;;;;;;;2.65;1.40;;;;;;;;;;4963148;28;20218;-71
2023/07/29 10:25:02;;;;;;;8.88;2.00;;;;;;;;;;4982022;28;20637;-70
2023/07/29 10:27:28;;;;;;;2.55;1.98;;;;;;;;;;4981479;28;21103;-71
2023/07/29 10:29:55;;;;;;;7.25;2.30;;;;;;;;;;4964143;28;21031;-72
2023/07/29 10:32:22;;;;;;;4.10;1.55;;;;;;;;;;4981382;28;20298;-72
2023/07/29 10:34:47;;;;;;;2.83;1.90;;;;;;;;;;4979616;28;20855;-71
2023/07/29 10:37:12;;;;;;;4.20;1.63;;;;;;;;;;4963909;28;20176;-72
2023/07/29 10:39:39;;;;;;;2.92;2.08;;;;;;;;;;4963546;28;20187;-72
2023/07/29 10:42:05;;;;;;;4.78;1.92;;;;;;;;;;4976062;28;20206;-71
2023/07/29 10:44:41;;;;;;;2.05;1.50;;;;;;;;;;4959968;28;20188;-72
2023/07/29 10:47:13;;;;;;;1.60;1.05;;;;;;;;;;4977843;28;20184;-72
2023/07/29 10:49:42;;;;;;;1.40;1.13;;;;;;;;;;4976234;28;20194;-72
2023/07/29 10:52:07;;;;;;;1.88;1.27;;;;;;;;;;4977811;28;20207;-71
2023/07/29 10:54:42;;;;;;;3.08;1.45;;;;;;;;;;4975215;28;20180;-72
2023/07/29 10:57:12;;;;;;;1.52;1.30;;;;;;;;;;4958074;28;20497;-72
2023/07/29 10:59:37;;;;;;;2.53;1.73;;;;;;;;;;4961095;28;20191;-72
2023/07/29 11:02:11;;;;;;;3.58;1.45;;;;;;;;;;4974007;28;20203;-71
2023/07/29 11:04:45;;;;;;;1.65;1.20;;;;;;;;;;4958239;28;20183;-71
2023/07/29 11:07:12;;;;;;;3.05;1.42;;;;;;;;;;4957856;28;20194;-71
2023/07/29 11:09:49;;;;;;;1.77;1.23;;;;;;;;;;4979604;28;20179;-71
2023/07/29 11:12:33;;;;;;;3.28;1.45;;;;;;;;;;4959420;28;20705;-71
2023/07/29 11:15:01;;;;;;;1.90;1.15;;;;;;;;;;4978814;28;20301;-72
2023/07/29 11:17:27;;;;;;;2.97;2.03;;;;;;;;;;4961471;28;20307;-72
2023/07/29 11:19:53;;;;;;;2.13;1.80;;;;;;;;;;4978928;28;20318;-72
2023/07/29 11:22:18;;;;;;;2.38;1.80;;;;;;;;;;4961069;28;20211;-71
2023/07/29 11:24:43;;;;;;;2.90;2.20;;;;;;;;;;4960333;28;20188;-72
2023/07/29 11:27:11;;;;;;;2.47;2.05;;;;;;;;;;4978616;28;20990;-72
2023/07/29 11:29:37;;;;;;;2.40;2.20;;;;;;;;;;4980403;28;20215;-71
2023/07/29 11:32:02;;;;;;;4.22;1.63;;;;;;;;;;4978425;28;20306;-71
2023/07/29 11:34:31;;;;;;;3.65;1.77;;;;;;;;;;4978087;28;20318;-71
2023/07/29 11:36:56;;;;;;;1.20;1.10;;;;;;;;;;4961103;28;20195;-72
2023/07/29 11:39:22;;;;;;;2.75;1.55;;;;;;;;;;4976347;28;20194;-71
2023/07/29 11:41:47;;;;;;;2.85;1.88;;;;;;;;;;4961152;28;20210;-71
2023/07/29 11:44:16;;;;;;;1.42;1.33;;;;;;;;;;4977498;28;20179;-71
2023/07/29 11:46:42;;;;;;;1.77;1.27;;;;;;;;;;4976546;28;20278;-71
2023/07/29 11:49:07;;;;;;;2.20;1.40;;;;;;;;;;4978254;28;20192;-71
2023/07/29 11:51:33;;;;;;;2.08;1.67;;;;;;;;;;4976222;28;20229;-72
2023/07/29 11:53:58;;;;;;;3.00;1.33;;;;;;;;;;4975454;28;20572;-71
2023/07/29 11:56:24;;;;;;;2.40;1.75;;;;;;;;;;4960047;28;20318;-71
2023/07/29 11:58:50;;;;;;;1.85;1.65;;;;;;;;;;4961649;28;20238;-72
2023/07/29 12:01:15;;;;;;;2.75;1.90;;;;;;;;;;4960845;28;20698;-71
2023/07/29 12:03:40;;;;;;;3.33;2.10;;;;;;;;;;4978537;28;20192;-71
2023/07/29 12:06:06;;;;;;;2.28;1.80;;;;;;;;;;4978108;28;20325;-71
2023/07/29 12:08:32;;;;;;;2.58;1.83;;;;;;;;;;4976821;28;20566;-71
2023/07/29 12:10:57;;;;;;;2.55;1.50;;;;;;;;;;4990183;22;20223;-68
2023/07/29 12:13:25;;;;;;;6.88;1.30;;;;;;;;;;4987541;28;20310;-68
2023/07/29 12:15:50;;;;;;;1.33;1.15;;;;;;;;;;4987545;28;20222;-69
2023/07/29 12:18:16;;;;;;;1.67;1.25;;;;;;;;;;4983942;28;23745;-69
2023/07/29 12:20:41;;;;;;;1.55;1.17;;;;;;;;;;4985659;28;20196;-68
2023/07/29 12:23:07;;;;;;;1.52;1.30;;;;;;;;;;4975468;28;20203;-68
2023/07/29 12:25:33;;;;;;;1.40;1.30;;;;;;;;;;4978530;28;20336;-67
2023/07/29 12:28:02;;;;;;;2.67;1.13;;;;;;;;;;4978999;28;20686;-68
2023/07/29 12:30:27;;;;;;;3.95;1.27;;;;;;;;;;4979415;28;20194;-70
2023/07/29 12:32:53;;;;;;;1.10;0.90;;;;;;;;;;4978635;28;20203;-67
2023/07/29 12:35:18;;;;;;;1.05;0.80;;;;;;;;;;4978747;28;20725;-67
2023/07/29 12:37:43;;;;;;;3.03;1.17;;;;;;;;;;4979087;28;20881;-67
2023/07/29 12:40:29;;;;;;;1.63;1.20;;;;;;;;;;4977439;28;20187;-67
2023/07/29 12:42:54;;;;;;;1.38;0.85;;;;;;;;;;4978428;28;20697;-68
2023/07/29 12:45:22;;;;;;;4.10;1.38;;;;;;;;;;4978442;28;20231;-68
2023/07/29 12:47:47;;;;;;;3.28;1.23;;;;;;;;;;4977560;28;20230;-68
2023/07/29 12:50:12;;;;;;;2.67;1.70;;;;;;;;;;4977294;28;20183;-68
2023/07/29 12:52:38;;;;;;;2.35;1.30;;;;;;;;;;4978243;28;20874;-68
2023/07/29 12:55:04;;;;;;;1.98;1.15;;;;;;;;;;4976305;28;20718;-68
2023/07/29 12:57:29;;;;;;;1.33;1.20;;;;;;;;;;4977016;28;20950;-68
2023/07/29 12:59:54;;;;;;;2.50;1.13;;;;;;;;;;4976853;28;20206;-67
2023/07/29 13:02:19;;;;;;;1.08;0.98;;;;;;;;;;4977392;28;20888;-68
2023/07/29 13:04:45;;;;;;;2.47;1.30;;;;;;;;;;4977179;28;20183;-67
2023/07/29 13:07:10;;;;;;;3.93;1.33;;;;;;;;;;4977752;28;20190;-68
2023/07/29 13:09:35;;;;;;;1.47;1.37;;;;;;;;;;4976703;28;20433;-68
2023/07/29 13:12:00;;;;;;;2.17;1.10;;;;;;;;;;4974809;28;20491;-68
2023/07/29 13:14:26;;;;;;;3.03;1.48;;;;;;;;;;4976814;28;20195;-68
2023/07/29 13:16:51;;;;;;;1.92;0.90;;;;;;;;;;4978467;28;20238;-68
2023/07/29 13:19:18;;;;;;;1.67;1.40;;;;;;;;;;4975938;28;20219;-67
2023/07/29 13:21:43;;;;;;;1.92;1.30;;;;;;;;;;4979760;28;20452;-68
2023/07/29 13:24:08;;;;;;;2.13;1.00;;;;;;;;;;4966281;28;20290;-67
2023/07/29 13:26:34;;;;;;;1.50;1.40;;;;;;;;;;4957919;28;20950;-68
2023/07/29 13:28:59;;;;;;;1.83;1.30;;;;;;;;;;4960533;28;20444;-68
2023/07/29 13:31:24;;;;;;;1.35;1.25;;;;;;;;;;4958122;28;20211;-68
2023/07/29 13:33:50;;;;;;;2.45;1.40;;;;;;;;;;4958105;28;20238;-68
2023/07/29 13:36:15;;;;;;;1.40;1.27;;;;;;;;;;4958282;28;20220;-69
2023/07/29 13:38:41;;;;;;;1.67;1.13;;;;;;;;;;4957942;28;20184;-68
2023/07/29 13:41:06;;;;;;;0.85;0.82;;;;;;;;;;4957819;28;20448;-68
2023/07/29 13:43:31;;;;;;;3.13;1.00;;;;;;;;;;4959114;28;20539;-68
2023/07/29 13:45:57;;;;;;;1.83;1.50;;;;;;;;;;4961470;28;20303;-68
2023/07/29 13:48:22;;;;;;;4.35;1.15;;;;;;;;;;4959725;28;20338;-67
2023/07/29 13:50:47;;;;;;;2.42;1.02;;;;;;;;;;4957680;28;20666;-68
2023/07/29 13:53:12;;;;;;;2.00;0.85;;;;;;;;;;4958678;28;20192;-68
2023/07/29 13:55:38;;;;;;;5.45;1.52;;;;;;;;;;4957070;28;20856;-66
2023/07/29 13:58:03;;;;;;;1.15;0.82;;;;;;;;;;4958901;28;20188;-67
2023/07/29 14:00:28;;;;;;;1.98;1.08;;;;;;;;;;4963346;28;20189;-68
2023/07/29 14:02:54;;;;;;;1.40;0.73;;;;;;;;;;4958001;28;20239;-67
2023/07/29 14:05:19;;;;;;;3.67;0.93;;;;;;;;;;4958923;28;20250;-68
2023/07/29 14:07:44;;;;;;;1.08;0.80;;;;;;;;;;4957112;28;20192;-68
2023/07/29 14:10:09;;;;;;;1.20;1.03;;;;;;;;;;4958094;28;20184;-68
2023/07/29 14:12:35;;;;;;;1.63;0.50;;;;;;;;;;4957540;28;20503;-66
2023/07/29 14:15:00;;;;;;;1.27;0.88;;;;;;;;;;4965000;28;20213;-68
2023/07/29 14:17:26;;;;;;;3.65;1.13;;;;;;;;;;4979532;28;20233;-68
2023/07/29 14:19:51;;;;;;;1.60;1.00;;;;;;;;;;4959436;28;20203;-68
2023/07/29 14:22:16;;;;;;;2.95;0.80;;;;;;;;;;4956704;28;20563;-68
2023/07/29 14:24:41;;;;;;;1.05;0.70;;;;;;;;;;4958860;28;20223;-68
2023/07/29 14:27:06;;;;;;;1.15;0.82;;;;;;;;;;4961579;28;20186;-68
2023/07/29 14:29:32;;;;;;;0.68;0.50;;;;;;;;;;4958099;28;20868;-68
2023/07/29 14:31:57;;;;;;;1.48;0.55;;;;;;;;;;4956694;28;20200;-68
2023/07/29 14:34:22;;;;;;;0.63;0.52;;;;;;;;;;4953800;28;20176;-68
2023/07/29 14:36:47;;;;;;;2.15;0.90;;;;;;;;;;4957437;28;20218;-67